< Typhoon 195526 1955 Season Typhoon 195528 >
Typhoon 195527 (PATSY)
General InformationTrack Information on Google Maps || Disaster Info.ResourceGoogle EarthGE AnimationAtom FeedGeoJSON
Detalied Best Track (Time Zone = UTC)
Year Month Day Hour Lat. Long. Pressure (hPa) Wind (kt) Class Image Chart
1955 11 25 06 9.5 128.6 1002 0 2 -- Chart
1955 11 25 12 9.3 128.6 1002 0 2 -- Chart
1955 11 25 18 9.1 128.6 1002 0 2 -- Chart
1955 11 26 00 8.9 128.7 1002 0 2 -- Chart
1955 11 26 06 8.7 128.5 1002 0 2 -- Chart
1955 11 26 12 8.6 128.1 1002 0 2 -- Chart
1955 11 26 18 8.6 127.6 1002 0 2 -- Chart
1955 11 27 00 8.6 126.8 1002 0 2 -- Chart
1955 11 27 06 8.6 126.0 1000 0 2 -- Chart
1955 11 27 12 8.7 125.0 1000 0 2 -- Chart
1955 11 27 18 8.8 124.0 1000 0 2 -- Chart
1955 11 28 00 9.0 123.2 1000 0 2 -- Chart
1955 11 28 06 9.5 122.7 998 0 9 -- Chart
1955 11 28 12 10.0 122.8 998 0 9 -- Chart
1955 11 28 18 11.3 123.1 998 0 9 -- Chart
1955 11 29 00 12.5 123.2 998 0 9 -- Chart
1955 11 29 06 13.0 123.1 998 0 9 -- Chart
1955 11 29 12 13.4 123.0 998 0 9 -- Chart
1955 11 29 18 14.0 123.0 998 0 9 -- Chart
1955 11 30 00 14.8 123.2 998 0 9 -- Chart
1955 11 30 06 15.7 123.5 998 0 9 -- Chart
1955 11 30 12 16.5 124.3 998 0 9 -- Chart
1955 11 30 18 17.0 125.0 996 0 9 -- Chart
1955 12 1 00 17.9 127.0 994 0 9 -- Chart
1955 12 1 06 18.9 128.6 992 0 9 -- Chart
1955 12 1 12 19.9 129.9 990 0 9 -- Chart
1955 12 1 18 21.0 132.0 985 0 9 -- Chart
1955 12 2 00 22.0 134.0 980 0 9 -- Chart
1955 12 2 06 24.0 136.2 985 0 9 -- Chart
1955 12 2 12 25.2 138.4 992 0 9 -- Chart
1955 12 2 18 25.4 140.5 995 0 9 -- Chart
1955 12 3 00 25.3 143.1 998 0 9 -- Chart
1955 12 3 06 26.0 146.2 1000 0 9 -- Chart
1955 12 3 12 26.5 149.6 1004 0 6 -- Chart
1955 12 3 18 26.7 153.0 1006 0 6 -- Chart
1955 12 4 00 26.7 156.3 1008 0 6 -- Chart
Japan Meteorological Agency Best Track Data | Correction Date : 1989-06-01
< Typhoon 195526 1955 Season Typhoon 195528 >

Help